Time;durP1;ratioP1;P1;durP2;ratioP2;P2;SDS_P1;SDS_P2;PMS_P1;PMS_P2;Temp;Humidity;BMP_temperature;BMP_pressure;BME280_temperature;BME280_humidity;BME280_pressure;Samples;Min_cycle;Max_cycle;Signal;HPM_P1;HPM_P2
2023/05/22 00:00:43;;;;;;;14.38;8.23;;;;;;;;;;5053594;28;20036;-71
2023/05/22 00:03:09;;;;;;;17.77;8.35;;;;;;;;;;5051966;28;20025;-71
2023/05/22 00:05:37;;;;;;;13.27;7.93;;;;;;;;;;5046573;28;20111;-71
2023/05/22 00:08:05;;;;;;;14.25;7.90;;;;;;;;;;5053281;28;20390;-71
2023/05/22 00:10:30;;;;;;;13.77;8.32;;;;;;;;;;5049099;28;20387;-71
2023/05/22 00:12:56;;;;;;;9.55;7.88;;;;;;;;;;5049452;28;20025;-70
2023/05/22 00:15:22;;;;;;;11.57;7.95;;;;;;;;;;5052116;28;20069;-70
2023/05/22 00:17:47;;;;;;;10.98;8.23;;;;;;;;;;5053101;28;20025;-71
2023/05/22 00:20:14;;;;;;;11.73;8.18;;;;;;;;;;5053382;28;20048;-72
2023/05/22 00:22:39;;;;;;;13.05;8.80;;;;;;;;;;5049419;28;20025;-72
2023/05/22 00:25:06;;;;;;;11.77;8.80;;;;;;;;;;5043130;28;20450;-72
2023/05/22 00:27:32;;;;;;;11.40;7.75;;;;;;;;;;5048827;28;20028;-72
2023/05/22 00:29:59;;;;;;;11.90;7.55;;;;;;;;;;5040341;28;20438;-72
2023/05/22 00:32:26;;;;;;;13.82;8.10;;;;;;;;;;5052994;28;20017;-72
2023/05/22 00:34:51;;;;;;;21.17;9.30;;;;;;;;;;5043639;28;20116;-71
2023/05/22 00:37:18;;;;;;;14.05;8.75;;;;;;;;;;5066852;28;20162;-72
2023/05/22 00:39:45;;;;;;;14.23;8.60;;;;;;;;;;5045385;28;20046;-71
2023/05/22 00:42:11;;;;;;;19.60;9.70;;;;;;;;;;5041028;28;20025;-71
2023/05/22 00:44:38;;;;;;;19.60;8.75;;;;;;;;;;5044404;28;20057;-71
2023/05/22 00:47:03;;;;;;;12.82;9.18;;;;;;;;;;5046292;28;20025;-72
2023/05/22 00:49:30;;;;;;;17.80;9.10;;;;;;;;;;5039064;28;20029;-72
2023/05/22 00:51:55;;;;;;;15.52;9.45;;;;;;;;;;5051761;28;20108;-71
2023/05/22 00:54:22;;;;;;;14.15;8.65;;;;;;;;;;5037185;28;20467;-71
2023/05/22 00:56:48;;;;;;;12.48;8.93;;;;;;;;;;5046563;28;20449;-71
2023/05/22 00:59:15;;;;;;;14.35;9.40;;;;;;;;;;5049954;28;20099;-72
2023/05/22 01:01:42;;;;;;;16.17;7.80;;;;;;;;;;5052416;28;20024;-71
2023/05/22 01:04:11;;;;;;;12.05;8.52;;;;;;;;;;5039683;28;20060;-71
2023/05/22 01:06:37;;;;;;;14.95;9.23;;;;;;;;;;5032881;28;20025;-70
2023/05/22 01:09:04;;;;;;;13.88;8.73;;;;;;;;;;5031486;28;20030;-72
2023/05/22 01:12:04;;;;;;;16.15;8.90;;;;;;;;;;5032952;28;20037;-71
2023/05/22 01:15:09;;;;;;;12.63;8.60;;;;;;;;;;5029990;28;20056;-71
2023/05/22 01:17:40;;;;;;;13.65;7.90;;;;;;;;;;5031751;28;20045;-71
2023/05/22 01:20:24;;;;;;;14.38;9.55;;;;;;;;;;5051752;28;20047;-72
2023/05/22 01:23:30;;;;;;;18.35;10.05;;;;;;;;;;5052542;28;20037;-71
2023/05/22 01:26:07;;;;;;;17.48;10.27;;;;;;;;;;5050909;28;20115;-72
2023/05/22 01:28:43;;;;;;;15.20;9.98;;;;;;;;;;5052785;28;20047;-71
2023/05/22 01:31:14;;;;;;;13.77;9.10;;;;;;;;;;5051248;28;20032;-72
2023/05/22 01:33:59;;;;;;;13.50;8.90;;;;;;;;;;5052133;28;20055;-71
2023/05/22 01:36:31;;;;;;;16.70;8.85;;;;;;;;;;5050676;28;20083;-71
2023/05/22 01:39:00;;;;;;;11.70;7.97;;;;;;;;;;5050690;28;20044;-71
2023/05/22 01:41:28;;;;;;;15.25;10.50;;;;;;;;;;5050853;28;20052;-72
2023/05/22 01:43:54;;;;;;;18.35;10.38;;;;;;;;;;5050297;28;20028;-72
2023/05/22 01:46:20;;;;;;;18.45;10.25;;;;;;;;;;5051965;28;20025;-71
2023/05/22 01:48:46;;;;;;;18.83;9.75;;;;;;;;;;5051981;28;20062;-72
2023/05/22 01:51:38;;;;;;;16.75;9.25;;;;;;;;;;5050910;28;20394;-71
2023/05/22 01:54:41;;;;;;;15.93;10.48;;;;;;;;;;5066454;28;20052;-71
2023/05/22 01:57:15;;;;;;;20.75;10.80;;;;;;;;;;5040074;28;20059;-71
2023/05/22 02:00:02;;;;;;;19.23;9.70;;;;;;;;;;5050600;28;20465;-71
2023/05/22 02:02:30;;;;;;;12.57;8.77;;;;;;;;;;5050755;28;20383;-71
2023/05/22 02:04:59;;;;;;;14.40;9.38;;;;;;;;;;5050171;28;20039;-71
2023/05/22 02:07:28;;;;;;;22.85;9.32;;;;;;;;;;5050052;28;20079;-71
2023/05/22 02:09:56;;;;;;;16.55;8.55;;;;;;;;;;5050264;28;20124;-71
2023/05/22 02:12:24;;;;;;;20.33;9.10;;;;;;;;;;5050384;28;20041;-71
2023/05/22 02:14:50;;;;;;;16.63;8.77;;;;;;;;;;5049685;28;20028;-72
2023/05/22 02:17:20;;;;;;;17.58;8.40;;;;;;;;;;5051500;28;20461;-71
2023/05/22 02:19:46;;;;;;;22.33;9.60;;;;;;;;;;5051524;28;20483;-71
2023/05/22 02:22:12;;;;;;;15.90;8.25;;;;;;;;;;5033780;28;20074;-71
2023/05/22 02:24:44;;;;;;;16.75;9.10;;;;;;;;;;5038657;28;20044;-71
2023/05/22 02:27:10;;;;;;;19.85;9.05;;;;;;;;;;5030213;28;20494;-71
2023/05/22 02:29:36;;;;;;;20.30;9.93;;;;;;;;;;5030127;28;20041;-72
2023/05/22 02:32:04;;;;;;;17.77;8.95;;;;;;;;;;5030206;28;20478;-72
2023/05/22 02:34:32;;;;;;;18.45;9.20;;;;;;;;;;5039143;28;20029;-72
2023/05/22 02:36:59;;;;;;;23.83;9.07;;;;;;;;;;5049324;28;20068;-72
2023/05/22 02:39:27;;;;;;;18.52;8.52;;;;;;;;;;5049651;28;20025;-72
2023/05/22 02:41:53;;;;;;;15.73;8.52;;;;;;;;;;5033282;28;20040;-72
2023/05/22 02:44:20;;;;;;;24.98;8.48;;;;;;;;;;5040085;28;20022;-71
2023/05/22 02:46:46;;;;;;;19.65;8.98;;;;;;;;;;5028680;28;20029;-72
2023/05/22 02:49:12;;;;;;;19.55;8.95;;;;;;;;;;5031982;28;20013;-71
2023/05/22 02:51:38;;;;;;;20.30;8.25;;;;;;;;;;5013137;28;20029;-70
2023/05/22 02:54:04;;;;;;;16.73;8.48;;;;;;;;;;5033605;28;20029;-72
2023/05/22 02:56:30;;;;;;;19.75;8.07;;;;;;;;;;5048049;28;20119;-72
2023/05/22 02:58:58;;;;;;;17.17;8.38;;;;;;;;;;5049134;28;20086;-72
2023/05/22 03:01:25;;;;;;;18.77;8.15;;;;;;;;;;5049787;28;20044;-71
2023/05/22 03:03:51;;;;;;;17.77;8.70;;;;;;;;;;5050875;28;20455;-70
2023/05/22 03:06:17;;;;;;;18.13;8.10;;;;;;;;;;5034689;28;20128;-70
2023/05/22 03:08:43;;;;;;;17.27;8.30;;;;;;;;;;5053582;28;20119;-72
2023/05/22 03:11:09;;;;;;;18.33;7.75;;;;;;;;;;5053641;28;20508;-72
2023/05/22 03:13:35;;;;;;;18.20;8.27;;;;;;;;;;5053352;28;20029;-72
2023/05/22 03:16:01;;;;;;;22.60;8.93;;;;;;;;;;5033546;28;20128;-71
2023/05/22 03:18:28;;;;;;;18.42;9.75;;;;;;;;;;5033692;28;20056;-71
2023/05/22 03:20:55;;;;;;;30.42;10.43;;;;;;;;;;5037372;28;20039;-71
2023/05/22 03:23:20;;;;;;;25.48;9.77;;;;;;;;;;5065292;28;20037;-71
2023/05/22 03:25:46;;;;;;;27.10;10.32;;;;;;;;;;5043770;28;20037;-71
2023/05/22 03:28:13;;;;;;;21.95;8.38;;;;;;;;;;5050046;28;20033;-71
2023/05/22 03:30:40;;;;;;;16.83;8.48;;;;;;;;;;5036812;28;20729;-71
2023/05/22 03:33:19;;;;;;;21.30;9.05;;;;;;;;;;5042926;28;20590;-71
2023/05/22 03:35:45;;;;;;;21.90;9.00;;;;;;;;;;5052236;28;20033;-71
2023/05/22 03:38:11;;;;;;;28.88;10.05;;;;;;;;;;5044386;28;20490;-71
2023/05/22 03:40:37;;;;;;;21.15;8.73;;;;;;;;;;5045677;28;20037;-71
2023/05/22 03:43:03;;;;;;;20.20;8.65;;;;;;;;;;5048839;28;20083;-71
2023/05/22 03:45:29;;;;;;;24.17;10.13;;;;;;;;;;5043568;28;20029;-71
2023/05/22 03:47:55;;;;;;;19.50;9.13;;;;;;;;;;5052644;28;20035;-71
2023/05/22 03:50:23;;;;;;;13.43;8.48;;;;;;;;;;5046068;28;20063;-72
2023/05/22 03:52:48;;;;;;;17.80;9.10;;;;;;;;;;5053661;28;20106;-71
2023/05/22 03:55:15;;;;;;;29.05;10.50;;;;;;;;;;5036941;28;20410;-71
2023/05/22 03:57:40;;;;;;;29.23;11.45;;;;;;;;;;5052276;28;20025;-73
2023/05/22 04:00:11;;;;;;;25.58;10.20;;;;;;;;;;5051867;28;20041;-73
2023/05/22 04:02:43;;;;;;;36.00;18.70;;;;;;;;;;5046466;28;20422;-71
2023/05/22 04:05:09;;;;;;;24.52;11.80;;;;;;;;;;5046914;28;20047;-71
2023/05/22 04:07:41;;;;;;;32.38;11.63;;;;;;;;;;5046051;28;20029;-72
2023/05/22 04:10:07;;;;;;;26.90;11.40;;;;;;;;;;5044125;28;20025;-72
2023/05/22 04:12:33;;;;;;;25.00;9.52;;;;;;;;;;5048579;28;20044;-71
2023/05/22 04:14:59;;;;;;;25.45;11.30;;;;;;;;;;5074049;28;20113;-70
2023/05/22 04:17:38;;;;;;;27.08;10.30;;;;;;;;;;5043203;28;20025;-71
2023/05/22 04:20:05;;;;;;;26.63;9.98;;;;;;;;;;5044732;28;20044;-72
2023/05/22 04:22:32;;;;;;;20.38;9.73;;;;;;;;;;5046759;28;20393;-71
2023/05/22 04:24:57;;;;;;;27.45;11.07;;;;;;;;;;5043629;28;20033;-71
2023/05/22 04:27:23;;;;;;;27.58;9.52;;;;;;;;;;5035389;28;20032;-71
2023/05/22 04:29:50;;;;;;;17.00;8.65;;;;;;;;;;5046579;28;20423;-72
2023/05/22 04:32:20;;;;;;;23.52;9.65;;;;;;;;;;5050628;28;20055;-71
2023/05/22 04:34:49;;;;;;;20.27;9.40;;;;;;;;;;5043260;28;20044;-71
2023/05/22 04:37:17;;;;;;;18.48;8.23;;;;;;;;;;5043189;28;20021;-72
2023/05/22 04:39:44;;;;;;;17.20;8.50;;;;;;;;;;5044038;28;20510;-72
2023/05/22 04:42:13;;;;;;;20.65;8.43;;;;;;;;;;5022934;28;20036;-72
2023/05/22 04:44:40;;;;;;;13.18;7.82;;;;;;;;;;5044913;28;20033;-71
2023/05/22 04:47:10;;;;;;;14.50;7.28;;;;;;;;;;5052595;28;20070;-71
2023/05/22 04:49:37;;;;;;;14.48;7.90;;;;;;;;;;5049485;28;20044;-70
2023/05/22 04:52:05;;;;;;;18.48;8.20;;;;;;;;;;5038706;28;20025;-71
2023/05/22 04:54:32;;;;;;;14.93;7.90;;;;;;;;;;5059070;28;20036;-72
2023/05/22 04:56:58;;;;;;;14.18;7.78;;;;;;;;;;5051319;28;20025;-72
2023/05/22 04:59:25;;;;;;;14.25;8.25;;;;;;;;;;5042606;28;20038;-72
2023/05/22 05:01:51;;;;;;;15.23;8.60;;;;;;;;;;5042309;28;20017;-72
2023/05/22 05:04:17;;;;;;;15.00;7.72;;;;;;;;;;5042485;28;20053;-72
2023/05/22 05:06:44;;;;;;;18.73;8.00;;;;;;;;;;5046670;28;20083;-72
2023/05/22 05:09:10;;;;;;;16.33;8.05;;;;;;;;;;5039162;28;20063;-72
2023/05/22 05:11:36;;;;;;;18.13;7.43;;;;;;;;;;5051775;28;20052;-73
2023/05/22 05:14:02;;;;;;;12.57;9.02;;;;;;;;;;5030781;28;20080;-73
2023/05/22 05:16:28;;;;;;;18.92;8.95;;;;;;;;;;5049318;28;20364;-72
2023/05/22 05:18:54;;;;;;;14.52;8.27;;;;;;;;;;5045123;28;20341;-73
2023/05/22 05:21:20;;;;;;;18.40;9.35;;;;;;;;;;5039879;28;20028;-72
2023/05/22 05:23:46;;;;;;;15.02;8.80;;;;;;;;;;5042349;28;20041;-73
2023/05/22 05:26:13;;;;;;;21.02;9.15;;;;;;;;;;5050516;28;20040;-71
2023/05/22 05:28:39;;;;;;;19.10;8.93;;;;;;;;;;5041688;28;20032;-71
2023/05/22 05:31:09;;;;;;;14.45;8.70;;;;;;;;;;5050642;28;20017;-73
2023/05/22 05:34:05;;;;;;;13.60;8.43;;;;;;;;;;5037327;28;20397;-71
2023/05/22 05:37:04;;;;;;;16.30;8.25;;;;;;;;;;5034406;28;20071;-71
2023/05/22 05:39:32;;;;;;;12.25;8.93;;;;;;;;;;5041822;28;21347;-72
2023/05/22 05:42:00;;;;;;;16.15;8.65;;;;;;;;;;5046841;28;20025;-72
2023/05/22 05:44:28;;;;;;;16.15;8.43;;;;;;;;;;5038193;28;20052;-71
2023/05/22 05:46:53;;;;;;;19.15;8.27;;;;;;;;;;5049842;28;20044;-71
2023/05/22 05:49:21;;;;;;;16.98;7.75;;;;;;;;;;5041963;28;20029;-71
2023/05/22 05:51:46;;;;;;;14.05;8.65;;;;;;;;;;5045468;28;20094;-72
2023/05/22 05:54:15;;;;;;;17.17;9.18;;;;;;;;;;5038184;28;20106;-71
2023/05/22 05:56:41;;;;;;;16.33;9.70;;;;;;;;;;5058618;28;20109;-72
2023/05/22 05:59:08;;;;;;;17.48;8.10;;;;;;;;;;5041681;28;20076;-71
2023/05/22 06:01:52;;;;;;;14.50;8.88;;;;;;;;;;5045375;28;20031;-72
2023/05/22 06:04:23;;;;;;;15.40;8.52;;;;;;;;;;5041576;28;20494;-72
2023/05/22 06:06:51;;;;;;;17.25;8.48;;;;;;;;;;5041489;28;20098;-72
2023/05/22 06:09:17;;;;;;;12.60;9.15;;;;;;;;;;5051321;28;20021;-71
2023/05/22 06:12:12;;;;;;;16.02;8.15;;;;;;;;;;5060815;28;20033;-72
2023/05/22 06:14:39;;;;;;;12.75;8.20;;;;;;;;;;5025020;28;20407;-72
2023/05/22 06:17:07;;;;;;;14.43;9.00;;;;;;;;;;5049885;28;20025;-72
2023/05/22 06:19:36;;;;;;;15.95;8.52;;;;;;;;;;5050362;28;20570;-72
2023/05/22 06:22:01;;;;;;;19.40;9.52;;;;;;;;;;5049717;28;20028;-72
2023/05/22 06:24:30;;;;;;;13.63;9.10;;;;;;;;;;5049770;28;20455;-71
2023/05/22 06:26:57;;;;;;;13.02;8.55;;;;;;;;;;5049711;28;20112;-71
2023/05/22 06:29:23;;;;;;;17.45;9.07;;;;;;;;;;5049621;28;20083;-76
2023/05/22 06:31:51;;;;;;;14.75;9.40;;;;;;;;;;5050112;28;20020;-75
2023/05/22 06:34:19;;;;;;;21.52;11.32;;;;;;;;;;5049955;28;20060;-75
2023/05/22 06:36:45;;;;;;;13.50;8.45;;;;;;;;;;5050031;28;20517;-74
2023/05/22 06:39:12;;;;;;;15.07;8.48;;;;;;;;;;5045123;28;20041;-73
2023/05/22 06:42:07;;;;;;;19.63;10.00;;;;;;;;;;5019325;28;20021;-77
2023/05/22 06:44:51;;;;;;;14.30;8.65;;;;;;;;;;5031117;28;20111;-74
2023/05/22 06:47:18;;;;;;;24.52;9.65;;;;;;;;;;5029661;28;20060;-77
2023/05/22 06:49:45;;;;;;;14.07;9.18;;;;;;;;;;5046774;28;20021;-76
2023/05/22 06:52:11;;;;;;;14.02;9.65;;;;;;;;;;5049136;28;20178;-75
2023/05/22 06:54:41;;;;;;;16.45;9.60;;;;;;;;;;5049322;28;20471;-77
2023/05/22 06:57:10;;;;;;;;;;;;;;;;;;5050235;28;20094;-75
2023/05/22 06:59:36;;;;;;;16.88;7.78;;;;;;;;;;5049245;28;20375;-75
2023/05/22 07:02:05;;;;;;;26.40;8.73;;;;;;;;;;5050574;28;20372;-77
2023/05/22 07:04:54;;;;;;;17.52;8.50;;;;;;;;;;5059455;28;20049;-74
2023/05/22 07:07:43;;;;;;;16.95;8.48;;;;;;;;;;5042136;28;20494;-76
2023/05/22 07:10:11;;;;;;;22.45;8.60;;;;;;;;;;5048033;28;20060;-76
2023/05/22 07:12:36;;;;;;;35.72;10.68;;;;;;;;;;5040295;28;20064;-76
2023/05/22 07:15:05;;;;;;;16.45;7.97;;;;;;;;;;5049086;28;20044;-76
2023/05/22 07:17:30;;;;;;;25.20;9.13;;;;;;;;;;5032324;28;20064;-75
2023/05/22 07:19:57;;;;;;;23.02;9.20;;;;;;;;;;5049100;28;20040;-74
2023/05/22 07:22:23;;;;;;;34.67;9.68;;;;;;;;;;5049280;28;20024;-76
2023/05/22 07:24:49;;;;;;;16.13;7.85;;;;;;;;;;5049292;28;20127;-75
2023/05/22 07:27:17;;;;;;;14.35;7.60;;;;;;;;;;5049184;28;20127;-75
2023/05/22 07:29:45;;;;;;;21.13;9.38;;;;;;;;;;5048896;28;20036;-76
2023/05/22 07:32:11;;;;;;;35.75;9.52;;;;;;;;;;5048669;28;20386;-76
2023/05/22 07:34:37;;;;;;;32.13;9.38;;;;;;;;;;5048051;28;20033;-77
2023/05/22 07:37:08;;;;;;;33.13;9.32;;;;;;;;;;5048825;28;20163;-76
2023/05/22 07:39:34;;;;;;;44.40;10.90;;;;;;;;;;5050317;28;20025;-76
2023/05/22 07:42:00;;;;;;;31.55;8.82;;;;;;;;;;5048881;28;20039;-76
2023/05/22 07:44:27;;;;;;;14.70;6.72;;;;;;;;;;5048331;28;20137;-76
2023/05/22 07:46:54;;;;;;;28.20;9.07;;;;;;;;;;5048648;28;20399;-76
2023/05/22 07:49:24;;;;;;;20.00;7.20;;;;;;;;;;5049230;28;20440;-76
2023/05/22 07:51:50;;;;;;;17.55;6.82;;;;;;;;;;5049620;28;20098;-75
2023/05/22 07:54:18;;;;;;;11.80;6.55;;;;;;;;;;5051962;28;20131;-77
2023/05/22 07:56:48;;;;;;;15.65;5.88;;;;;;;;;;5051665;28;20041;-76
2023/05/22 07:59:18;;;;;;;8.95;6.40;;;;;;;;;;5046800;28;20080;-75
2023/05/22 08:01:44;;;;;;;12.95;5.75;;;;;;;;;;5052916;28;20138;-76
2023/05/22 08:04:10;;;;;;;14.50;7.43;;;;;;;;;;5044857;28;20068;-74
2023/05/22 08:06:35;;;;;;;13.65;6.45;;;;;;;;;;5051985;28;20048;-74
2023/05/22 08:09:03;;;;;;;20.15;6.68;;;;;;;;;;5052739;28;20100;-76
2023/05/22 08:11:29;;;;;;;24.50;7.63;;;;;;;;;;5051356;28;20609;-78
2023/05/22 08:13:56;;;;;;;22.67;6.95;;;;;;;;;;5053539;28;20078;-77
2023/05/22 08:16:22;;;;;;;26.65;6.88;;;;;;;;;;5053193;28;20108;-75
2023/05/22 08:18:48;;;;;;;12.45;5.97;;;;;;;;;;5052965;28;20021;-77
2023/05/22 08:21:15;;;;;;;12.82;5.40;;;;;;;;;;5052327;28;20037;-76
2023/05/22 08:23:40;;;;;;;12.07;6.35;;;;;;;;;;5052870;28;20028;-75
2023/05/22 08:26:08;;;;;;;14.00;6.20;;;;;;;;;;5052890;28;20044;-77
2023/05/22 08:28:34;;;;;;;15.77;7.57;;;;;;;;;;5052486;28;20509;-76
2023/05/22 08:30:59;;;;;;;17.35;5.68;;;;;;;;;;5052819;28;20229;-77
2023/05/22 08:33:25;;;;;;;14.18;6.55;;;;;;;;;;5052270;28;20474;-76
2023/05/22 08:35:51;;;;;;;21.50;6.07;;;;;;;;;;5052669;28;20098;-77
2023/05/22 08:38:17;;;;;;;12.85;5.18;;;;;;;;;;5053064;28;20070;-76
2023/05/22 08:40:48;;;;;;;12.85;5.60;;;;;;;;;;5067287;28;20131;-76
2023/05/22 08:43:14;;;;;;;16.38;5.38;;;;;;;;;;5052376;28;20036;-76
2023/05/22 08:45:42;;;;;;;10.88;5.90;;;;;;;;;;5052581;28;20035;-77
2023/05/22 08:48:12;;;;;;;16.48;5.65;;;;;;;;;;5051250;28;20056;-76
2023/05/22 08:50:45;;;;;;;11.80;5.07;;;;;;;;;;5051497;28;20486;-76
2023/05/22 08:53:14;;;;;;;13.23;5.20;;;;;;;;;;5051675;28;20064;-77
2023/05/22 08:55:40;;;;;;;7.93;4.80;;;;;;;;;;5051945;28;20459;-77
2023/05/22 08:58:07;;;;;;;10.60;5.03;;;;;;;;;;5052850;28;20044;-77
2023/05/22 09:00:33;;;;;;;14.23;5.20;;;;;;;;;;5067851;28;20079;-76
2023/05/22 09:02:59;;;;;;;16.85;5.72;;;;;;;;;;5067599;28;20108;-76
2023/05/22 09:05:25;;;;;;;11.18;5.30;;;;;;;;;;5052164;28;20394;-77
2023/05/22 09:07:55;;;;;;;11.57;5.80;;;;;;;;;;5053241;28;20041;-77
2023/05/22 09:10:21;;;;;;;17.45;5.30;;;;;;;;;;5052738;28;20044;-77
2023/05/22 09:13:02;;;;;;;13.77;5.25;;;;;;;;;;5050932;28;20395;-75
2023/05/22 09:15:32;;;;;;;10.38;4.90;;;;;;;;;;5051745;28;20032;-75
2023/05/22 09:18:02;;;;;;;10.80;5.43;;;;;;;;;;5053667;28;20029;-76
2023/05/22 09:20:27;;;;;;;8.77;4.75;;;;;;;;;;5054552;28;20086;-76
2023/05/22 09:22:53;;;;;;;13.45;5.68;;;;;;;;;;5051311;28;20433;-78
2023/05/22 09:25:20;;;;;;;6.70;4.53;;;;;;;;;;5052249;28;20159;-76
2023/05/22 09:27:49;;;;;;;7.75;5.00;;;;;;;;;;5051911;28;20064;-76
2023/05/22 09:30:16;;;;;;;9.18;5.00;;;;;;;;;;5052337;28;20371;-77
2023/05/22 09:32:42;;;;;;;13.10;5.00;;;;;;;;;;5052255;28;20196;-75
2023/05/22 09:35:08;;;;;;;10.30;5.10;;;;;;;;;;5051747;28;20065;-76
2023/05/22 09:37:35;;;;;;;13.00;5.85;;;;;;;;;;5051889;28;20144;-75
2023/05/22 09:40:12;;;;;;;9.77;5.30;;;;;;;;;;5052016;28;20040;-76
2023/05/22 09:42:38;;;;;;;9.57;5.40;;;;;;;;;;5052023;28;20507;-76
2023/05/22 09:45:08;;;;;;;9.88;4.97;;;;;;;;;;5050749;28;20027;-76
2023/05/22 09:47:35;;;;;;;8.80;5.30;;;;;;;;;;5053647;28;20108;-77
2023/05/22 09:50:06;;;;;;;14.18;5.30;;;;;;;;;;5052508;28;20033;-76
2023/05/22 09:52:36;;;;;;;9.52;5.22;;;;;;;;;;5068403;28;20536;-76
2023/05/22 09:55:05;;;;;;;10.85;5.15;;;;;;;;;;5050519;28;20052;-76
2023/05/22 09:57:43;;;;;;;9.15;4.47;;;;;;;;;;5050421;28;20036;-74
2023/05/22 10:00:16;;;;;;;15.02;5.70;;;;;;;;;;5054093;28;20053;-75
2023/05/22 10:02:45;;;;;;;7.43;3.83;;;;;;;;;;5051840;28;20067;-77
2023/05/22 10:05:20;;;;;;;8.32;3.75;;;;;;;;;;5051468;28;20049;-77
2023/05/22 10:07:54;;;;;;;9.02;4.45;;;;;;;;;;5066070;28;20487;-76
2023/05/22 10:10:23;;;;;;;7.43;4.00;;;;;;;;;;5051233;28;20461;-76
2023/05/22 10:12:56;;;;;;;7.90;3.67;;;;;;;;;;5050433;28;20024;-76
2023/05/22 10:15:23;;;;;;;12.77;4.35;;;;;;;;;;5050649;28;20521;-75
2023/05/22 10:17:49;;;;;;;8.57;4.07;;;;;;;;;;5051660;28;20056;-75
2023/05/22 10:20:16;;;;;;;8.43;4.00;;;;;;;;;;5051407;28;20055;-76
2023/05/22 10:22:42;;;;;;;6.00;3.55;;;;;;;;;;5051168;28;20040;-76
2023/05/22 10:25:08;;;;;;;6.70;3.58;;;;;;;;;;5051086;28;20158;-75
2023/05/22 10:27:34;;;;;;;12.48;4.03;;;;;;;;;;5050233;28;20467;-76
2023/05/22 10:30:18;;;;;;;6.78;3.85;;;;;;;;;;5051375;28;20032;-77
2023/05/22 10:33:24;;;;;;;10.23;4.47;;;;;;;;;;5050889;28;20119;-75
2023/05/22 10:35:57;;;;;;;8.00;3.95;;;;;;;;;;5065693;28;20064;-77
2023/05/22 10:38:42;;;;;;;6.70;3.95;;;;;;;;;;5049988;28;20132;-76
2023/05/22 10:41:09;;;;;;;9.10;3.90;;;;;;;;;;5051403;28;20037;-76
2023/05/22 10:43:41;;;;;;;6.80;3.58;;;;;;;;;;5050608;28;20040;-77
2023/05/22 10:46:08;;;;;;;8.32;3.65;;;;;;;;;;5053412;28;20029;-77
2023/05/22 10:48:46;;;;;;;7.25;3.70;;;;;;;;;;5033769;28;20500;-77
2023/05/22 10:51:14;;;;;;;6.30;3.53;;;;;;;;;;5052057;28;20127;-76
2023/05/22 10:53:44;;;;;;;8.07;3.60;;;;;;;;;;5051476;28;20060;-77
2023/05/22 10:56:14;;;;;;;7.30;2.70;;;;;;;;;;5051135;28;20057;-77
2023/05/22 10:58:55;;;;;;;7.07;3.40;;;;;;;;;;5051655;28;20490;-78
2023/05/22 11:01:24;;;;;;;5.75;3.00;;;;;;;;;;5051274;28;20045;-76
2023/05/22 11:03:59;;;;;;;5.43;2.83;;;;;;;;;;5042731;28;20021;-77
2023/05/22 11:06:44;;;;;;;6.85;3.42;;;;;;;;;;5051309;28;20345;-76
2023/05/22 11:09:25;;;;;;;9.13;3.53;;;;;;;;;;5045301;28;20106;-76
2023/05/22 11:12:16;;;;;;;7.03;3.38;;;;;;;;;;5050289;28;20040;-75
2023/05/22 11:15:09;;;;;;;5.18;3.47;;;;;;;;;;5050969;28;20068;-76
2023/05/22 11:17:38;;;;;;;7.95;3.30;;;;;;;;;;5051344;28;20033;-76
2023/05/22 11:20:23;;;;;;;10.20;3.72;;;;;;;;;;5050751;28;20284;-76
2023/05/22 11:22:57;;;;;;;5.20;3.05;;;;;;;;;;5049663;28;20058;-76
2023/05/22 11:25:25;;;;;;;8.02;5.82;;;;;;;;;;5051001;28;20448;-78
2023/05/22 11:27:53;;;;;;;8.85;3.63;;;;;;;;;;5053588;28;20029;-75
2023/05/22 11:30:19;;;;;;;10.18;4.90;;;;;;;;;;5053058;28;20041;-76
2023/05/22 11:32:46;;;;;;;10.55;3.58;;;;;;;;;;5054900;28;20051;-77
2023/05/22 11:35:17;;;;;;;10.38;4.30;;;;;;;;;;5054690;28;20159;-77
2023/05/22 11:37:43;;;;;;;9.20;4.13;;;;;;;;;;5055086;28;20049;-77
2023/05/22 11:40:12;;;;;;;7.68;3.70;;;;;;;;;;5053671;28;20393;-75
2023/05/22 11:42:38;;;;;;;6.78;4.30;;;;;;;;;;5054440;28;20093;-74
2023/05/22 11:45:04;;;;;;;10.93;4.38;;;;;;;;;;5055012;28;20117;-75
2023/05/22 11:47:31;;;;;;;9.23;4.68;;;;;;;;;;5053378;28;20135;-76
2023/05/22 11:49:58;;;;;;;10.27;4.57;;;;;;;;;;5054417;28;20029;-76
2023/05/22 11:52:25;;;;;;;12.27;4.28;;;;;;;;;;5054915;28;20136;-78
2023/05/22 11:54:51;;;;;;;8.02;4.57;;;;;;;;;;5052993;28;20033;-75
2023/05/22 11:57:18;;;;;;;7.20;3.40;;;;;;;;;;5054521;28;20530;-76
2023/05/22 11:59:45;;;;;;;9.38;4.20;;;;;;;;;;5052716;28;20419;-75
2023/05/22 12:02:13;;;;;;;8.52;4.50;;;;;;;;;;5069813;28;20395;-74
2023/05/22 12:04:39;;;;;;;17.40;5.35;;;;;;;;;;5053630;28;20040;-75
2023/05/22 12:07:06;;;;;;;12.38;6.20;;;;;;;;;;5054094;28;20043;-76
2023/05/22 12:09:32;;;;;;;10.13;4.70;;;;;;;;;;5053871;28;20053;-76
2023/05/22 12:11:58;;;;;;;10.65;4.47;;;;;;;;;;5054198;28;20492;-76
2023/05/22 12:14:28;;;;;;;13.35;5.13;;;;;;;;;;5052718;28;20104;-75
2023/05/22 12:16:56;;;;;;;10.30;4.90;;;;;;;;;;5053523;28;20483;-75
2023/05/22 12:19:24;;;;;;;8.93;4.55;;;;;;;;;;5053406;28;20029;-75
2023/05/22 12:21:51;;;;;;;10.23;5.28;;;;;;;;;;5053590;28;20029;-76
2023/05/22 12:24:23;;;;;;;6.60;4.30;;;;;;;;;;5052038;28;20110;-75
2023/05/22 12:26:50;;;;;;;8.27;4.68;;;;;;;;;;5053199;28;20127;-75
2023/05/22 12:29:17;;;;;;;8.40;4.60;;;;;;;;;;5052493;28;20025;-76
2023/05/22 12:31:45;;;;;;;13.15;4.95;;;;;;;;;;5069391;28;20443;-75
2023/05/22 12:34:11;;;;;;;11.45;5.57;;;;;;;;;;5068028;28;20479;-75
2023/05/22 12:36:38;;;;;;;15.70;6.80;;;;;;;;;;5052863;28;20090;-75
2023/05/22 12:39:17;;;;;;;22.60;6.55;;;;;;;;;;5052673;28;20031;-74
2023/05/22 12:41:45;;;;;;;12.48;5.57;;;;;;;;;;5053924;28;20049;-74
2023/05/22 12:44:11;;;;;;;9.07;4.13;;;;;;;;;;5035526;28;20055;-75
2023/05/22 12:46:37;;;;;;;6.70;3.33;;;;;;;;;;5053285;28;20048;-75
2023/05/22 12:49:02;;;;;;;14.73;3.97;;;;;;;;;;5053569;28;20029;-74
2023/05/22 12:51:30;;;;;;;15.00;4.82;;;;;;;;;;5069241;28;20029;-76
2023/05/22 12:54:00;;;;;;;9.60;4.15;;;;;;;;;;5053196;28;20020;-77
2023/05/22 12:56:27;;;;;;;15.93;4.30;;;;;;;;;;5051623;28;20127;-75
2023/05/22 12:58:53;;;;;;;6.35;3.10;;;;;;;;;;5053343;28;20037;-77
2023/05/22 13:01:20;;;;;;;11.60;3.25;;;;;;;;;;5053493;28;20085;-74
2023/05/22 13:03:46;;;;;;;10.18;3.40;;;;;;;;;;5053373;28;20470;-74
2023/05/22 13:06:12;;;;;;;11.63;4.03;;;;;;;;;;5052611;28;20041;-74
2023/05/22 13:08:38;;;;;;;11.20;3.60;;;;;;;;;;5051430;28;20159;-76
2023/05/22 13:11:04;;;;;;;9.80;3.60;;;;;;;;;;5052647;28;20029;-75
2023/05/22 13:13:29;;;;;;;7.97;3.42;;;;;;;;;;5047514;28;20021;-73
2023/05/22 13:15:55;;;;;;;15.60;4.22;;;;;;;;;;5052787;28;20417;-73
2023/05/22 13:18:21;;;;;;;14.95;3.70;;;;;;;;;;5052544;28;20397;-73
2023/05/22 13:20:47;;;;;;;13.82;4.18;;;;;;;;;;5044007;28;20036;-74
2023/05/22 13:23:12;;;;;;;12.95;4.20;;;;;;;;;;5044270;28;20474;-73
2023/05/22 13:25:38;;;;;;;18.05;4.05;;;;;;;;;;5052174;28;20394;-75
2023/05/22 13:28:05;;;;;;;9.35;3.70;;;;;;;;;;5052279;28;20465;-73
2023/05/22 13:30:31;;;;;;;11.00;3.50;;;;;;;;;;5051142;28;20120;-74
2023/05/22 13:32:56;;;;;;;14.18;3.97;;;;;;;;;;5064169;28;20103;-74
2023/05/22 13:35:23;;;;;;;7.32;3.25;;;;;;;;;;5051961;28;20040;-75
2023/05/22 13:37:49;;;;;;;11.93;3.50;;;;;;;;;;5042710;28;20157;-72
2023/05/22 13:40:17;;;;;;;8.43;3.95;;;;;;;;;;5042584;28;20092;-75
2023/05/22 13:42:43;;;;;;;9.73;3.30;;;;;;;;;;5050732;28;20021;-75
2023/05/22 13:45:09;;;;;;;9.90;3.70;;;;;;;;;;5045590;28;20031;-75
2023/05/22 13:47:35;;;;;;;11.13;4.10;;;;;;;;;;5052317;28;20501;-75
2023/05/22 13:50:01;;;;;;;16.05;4.70;;;;;;;;;;5041925;28;20074;-73
2023/05/22 13:52:27;;;;;;;12.30;3.35;;;;;;;;;;5051749;28;20024;-74
2023/05/22 13:54:54;;;;;;;9.20;3.47;;;;;;;;;;5033217;28;20037;-74
2023/05/22 13:57:20;;;;;;;20.98;4.32;;;;;;;;;;5051306;28;20032;-73
2023/05/22 13:59:47;;;;;;;11.13;3.90;;;;;;;;;;5051852;28;20034;-73
2023/05/22 14:02:13;;;;;;;4.15;2.80;;;;;;;;;;5051990;28;20028;-76
2023/05/22 14:04:38;;;;;;;5.88;3.10;;;;;;;;;;5051822;28;20403;-75
2023/05/22 14:07:05;;;;;;;7.38;3.58;;;;;;;;;;5060010;28;20314;-77
2023/05/22 14:09:31;;;;;;;7.60;3.45;;;;;;;;;;5034861;28;20041;-76
2023/05/22 14:11:57;;;;;;;7.88;2.90;;;;;;;;;;5050937;28;20067;-75
2023/05/22 14:14:24;;;;;;;5.97;2.85;;;;;;;;;;5044148;28;20041;-74
2023/05/22 14:16:50;;;;;;;6.95;3.33;;;;;;;;;;5049700;28;20535;-74
2023/05/22 14:19:17;;;;;;;6.15;2.70;;;;;;;;;;5043174;28;20048;-74
2023/05/22 14:21:43;;;;;;;8.05;3.28;;;;;;;;;;5051098;28;20505;-75
2023/05/22 14:24:08;;;;;;;6.20;2.70;;;;;;;;;;5051506;28;20033;-75
2023/05/22 14:26:34;;;;;;;5.03;2.83;;;;;;;;;;5033610;28;20483;-76
2023/05/22 14:29:00;;;;;;;5.95;3.20;;;;;;;;;;5051450;28;20035;-74
2023/05/22 14:31:27;;;;;;;12.00;3.00;;;;;;;;;;5044169;28;20103;-73
2023/05/22 14:33:55;;;;;;;8.77;2.95;;;;;;;;;;5050427;28;20063;-73
2023/05/22 14:36:20;;;;;;;7.45;3.33;;;;;;;;;;5044918;28;20052;-75
2023/05/22 14:38:46;;;;;;;10.90;3.35;;;;;;;;;;5048780;28;20036;-73
2023/05/22 14:41:12;;;;;;;5.25;2.95;;;;;;;;;;5066062;28;20083;-75
2023/05/22 14:43:38;;;;;;;6.63;3.03;;;;;;;;;;5049356;28;20176;-73